Time;durP1;ratioP1;P1;durP2;ratioP2;P2;SDS_P1;SDS_P2;PMS_P1;PMS_P2;Temp;Humidity;BMP_temperature;BMP_pressure;BME280_temperature;BME280_humidity;BME280_pressure;Samples;Min_cycle;Max_cycle;Signal;HPM_P1;HPM_P2
2022/03/21 00:00:31;;;;;;;220.93;101.15;;;;;;;-2.33;62.15;96696.80;1711577;83;21066;-52
2022/03/21 00:03:00;;;;;;;206.97;97.22;;;;;;;-2.32;62.26;96694.34;1711465;83;20994;-50
2022/03/21 00:05:30;;;;;;;228.35;103.90;;;;;;;-2.36;62.34;96689.36;1711670;83;21467;-51
2022/03/21 00:07:58;;;;;;;212.57;98.72;;;;;;;-2.45;62.64;96692.63;1711520;83;21066;-51
2022/03/21 00:10:27;;;;;;;194.22;89.92;;;;;;;-2.56;62.81;96686.50;1711431;83;21208;-50
2022/03/21 00:12:56;;;;;;;199.12;89.75;;;;;;;-2.66;63.04;96692.98;1711492;83;20952;-51
2022/03/21 00:15:23;;;;;;;200.70;91.55;;;;;;;-2.77;63.49;96684.19;1696435;83;21420;-49
2022/03/21 00:17:52;;;;;;;211.75;96.08;;;;;;;-2.82;63.85;96695.92;1711372;83;21002;-48
2022/03/21 00:20:19;;;;;;;190.38;90.40;;;;;;;-2.80;64.02;96686.17;1711522;83;21018;-49
2022/03/21 00:22:46;;;;;;;195.40;89.87;;;;;;;-2.79;63.84;96690.45;1711638;83;21459;-50
2022/03/21 00:25:14;;;;;;;191.60;89.70;;;;;;;-2.82;63.50;96689.19;1711562;83;20964;-55
2022/03/21 00:27:41;;;;;;;192.28;88.45;;;;;;;-2.87;63.28;96682.59;1711470;83;21042;-49
2022/03/21 00:30:11;;;;;;;179.57;89.15;;;;;;;-2.85;63.61;96684.41;1711407;83;21014;-49
2022/03/21 00:32:38;;;;;;;178.87;89.28;;;;;;;-2.80;63.43;96678.90;1711762;83;21094;-50
2022/03/21 00:35:09;;;;;;;197.90;95.40;;;;;;;-2.75;63.38;96686.81;1711502;83;21607;-51
2022/03/21 00:37:37;;;;;;;172.10;83.78;;;;;;;-2.72;63.33;96688.09;1711745;83;20975;-49
2022/03/21 00:40:07;;;;;;;168.07;83.37;;;;;;;-2.62;63.23;96688.58;1711509;83;20974;-50
2022/03/21 00:42:37;;;;;;;153.55;71.65;;;;;;;-2.50;62.82;96683.33;1703930;83;21014;-50
2022/03/21 00:45:12;;;;;;;135.52;65.47;;;;;;;-2.45;62.13;96687.78;1711456;83;20947;-53
2022/03/21 00:47:39;;;;;;;134.57;64.60;;;;;;;-2.49;61.75;96683.56;1711694;83;21778;-52
2022/03/21 00:50:10;;;;;;;114.42;60.30;;;;;;;-2.55;61.66;96688.11;1711341;83;21054;-50
2022/03/21 00:52:46;;;;;;;141.90;69.07;;;;;;;-2.58;61.62;96692.22;1711642;83;21065;-49
2022/03/21 00:55:14;;;;;;;128.47;61.55;;;;;;;-2.57;61.62;96694.34;1711421;83;21010;-49
2022/03/21 00:57:42;;;;;;;107.95;54.90;;;;;;;-2.60;61.44;96683.66;1711419;83;21070;-50
2022/03/21 01:00:14;;;;;;;113.85;51.83;;;;;;;-2.62;61.50;96693.96;1711459;83;21569;-50
2022/03/21 01:02:42;;;;;;;119.47;54.18;;;;;;;-2.60;61.69;96691.75;1711767;83;21014;-49
2022/03/21 01:05:09;;;;;;;119.55;55.23;;;;;;;-2.55;61.54;96684.07;1705016;83;21051;-50
2022/03/21 01:07:38;;;;;;;114.62;57.67;;;;;;;-2.59;61.26;96682.55;1710044;83;20979;-49
2022/03/21 01:10:10;;;;;;;125.02;59.58;;;;;;;-2.64;61.39;96677.33;1711438;83;21495;-50
2022/03/21 01:12:38;;;;;;;131.03;64.67;;;;;;;-2.65;61.51;96673.59;1711585;83;21049;-49
2022/03/21 01:15:08;;;;;;;126.27;61.73;;;;;;;-2.65;61.50;96673.02;1710095;83;20975;-48
2022/03/21 01:17:35;;;;;;;135.55;65.45;;;;;;;-2.65;61.46;96679.75;1711766;83;20983;-49
2022/03/21 01:20:05;;;;;;;183.40;82.12;;;;;;;-2.70;61.42;96678.58;1711406;83;21018;-50
2022/03/21 01:22:33;;;;;;;206.55;91.65;;;;;;;-2.73;61.48;96669.78;1711798;83;21070;-49
2022/03/21 01:25:00;;;;;;;195.53;90.65;;;;;;;-2.81;61.86;96671.13;1711439;83;21128;-49
2022/03/21 01:27:29;;;;;;;200.05;89.65;;;;;;;-2.91;62.26;96668.18;1711364;83;21617;-49
2022/03/21 01:29:56;;;;;;;253.88;111.80;;;;;;;-2.90;62.69;96671.11;1711375;83;21446;-49
2022/03/21 01:32:24;;;;;;;204.85;94.70;;;;;;;-2.90;62.68;96664.38;1711497;83;20979;-48
2022/03/21 01:34:52;;;;;;;193.65;90.53;;;;;;;-2.93;62.90;96658.28;1711500;83;21022;-49
2022/03/21 01:37:19;;;;;;;140.47;67.95;;;;;;;-2.89;63.22;96659.23;1711415;83;21098;-49
2022/03/21 01:39:47;;;;;;;152.75;72.95;;;;;;;-2.86;62.38;96666.67;1711408;83;21122;-50
2022/03/21 01:42:14;;;;;;;192.37;83.05;;;;;;;-2.91;62.21;96665.48;1711443;83;21034;-49
2022/03/21 01:44:42;;;;;;;206.40;91.30;;;;;;;-2.91;62.10;96670.09;1711490;83;21003;-49
2022/03/21 01:47:09;;;;;;;143.57;62.62;;;;;;;-2.91;62.08;96668.18;1711384;83;21035;-49
2022/03/21 01:49:37;;;;;;;169.82;73.15;;;;;;;-2.91;61.87;96671.44;1711359;83;21141;-49
2022/03/21 01:52:06;;;;;;;111.30;53.87;;;;;;;-2.90;61.90;96674.38;1711374;83;21432;-53
2022/03/21 01:57:19;;;;;;;178.18;77.75;;;;;;;-2.77;61.69;96674.22;1711671;83;21030;-50
2022/03/21 01:59:47;;;;;;;169.72;73.70;;;;;;;-2.70;61.16;96673.76;1711696;83;20970;-51
2022/03/21 02:02:15;;;;;;;167.62;75.03;;;;;;;-2.76;61.06;96669.07;1676887;83;21119;-50
2022/03/21 02:04:42;;;;;;;140.70;63.90;;;;;;;-2.80;61.15;96666.78;1711347;83;21031;-50
2022/03/21 02:07:09;;;;;;;116.82;53.63;;;;;;;-2.78;61.05;96666.45;1711614;83;21074;-50
2022/03/21 02:09:37;;;;;;;104.20;51.20;;;;;;;-2.83;60.85;96668.73;1711619;83;21010;-50
2022/03/21 02:12:07;;;;;;;118.35;58.42;;;;;;;-2.87;60.67;96666.44;1711492;83;21015;-50
2022/03/21 02:14:39;;;;;;;105.05;50.50;;;;;;;-2.88;60.82;96663.51;1712073;83;21083;-50
2022/03/21 02:17:04;;;;;;;120.53;55.88;;;;;;;-2.84;60.57;96669.06;1711183;83;21096;-48
2022/03/21 02:19:32;;;;;;;113.68;54.33;;;;;;;-2.91;60.45;96661.45;1711532;83;20991;-51
2022/03/21 02:22:28;;;;;;;97.27;48.52;;;;;;;-2.97;60.65;96667.30;1711610;83;21080;-51
2022/03/21 02:25:32;;;;;;;114.67;51.55;;;;;;;-3.05;60.61;96670.20;1711671;83;21018;-51
2022/03/21 02:28:07;;;;;;;114.55;49.58;;;;;;;-3.26;61.21;96669.78;1711618;83;21188;-48
2022/03/21 02:30:38;;;;;;;145.15;63.45;;;;;;;-3.44;61.82;96664.11;1711826;83;20979;-50
2022/03/21 02:33:06;;;;;;;130.95;59.90;;;;;;;-3.58;62.03;96661.27;1709309;83;21006;-51
2022/03/21 02:35:34;;;;;;;126.18;60.33;;;;;;;-3.61;62.30;96665.93;1711496;83;21688;-51
2022/03/21 02:38:01;;;;;;;138.68;60.63;;;;;;;-3.59;62.53;96671.78;1711827;83;21558;-50
2022/03/21 02:40:30;;;;;;;131.10;59.58;;;;;;;-3.57;62.48;96665.78;1711543;83;21552;-50
2022/03/21 02:42:57;;;;;;;121.40;56.42;;;;;;;-3.52;62.53;96668.36;1711705;83;21471;-51
2022/03/21 02:45:25;;;;;;;125.30;59.15;;;;;;;-3.49;62.53;96669.07;1711627;83;20975;-51
2022/03/21 02:47:52;;;;;;;140.55;63.70;;;;;;;-3.48;62.72;96670.66;1711594;83;21059;-51
2022/03/21 02:50:56;;;;;;;137.15;59.38;;;;;;;-3.45;62.46;96667.34;1711548;83;21058;-51
2022/03/21 02:53:23;;;;;;;124.87;55.10;;;;;;;-3.40;62.46;96667.76;1708863;83;21311;-50
2022/03/21 02:55:55;;;;;;;176.90;70.97;;;;;;;-3.31;62.29;96668.02;1688197;83;21526;-49
2022/03/21 02:58:22;;;;;;;108.78;51.83;;;;;;;-3.26;61.95;96671.91;1711962;83;20999;-49
2022/03/21 03:00:51;;;;;;;109.12;49.18;;;;;;;-3.22;61.74;96676.90;1711532;83;21070;-49
2022/03/21 03:03:20;;;;;;;161.50;67.70;;;;;;;-3.20;61.52;96667.95;1711606;83;21563;-49
2022/03/21 03:05:51;;;;;;;94.58;45.30;;;;;;;-3.19;61.56;96670.11;1711487;83;21541;-50
2022/03/21 03:08:20;;;;;;;78.05;40.50;;;;;;;-3.19;61.26;96669.56;1711448;83;21034;-48
2022/03/21 03:10:47;;;;;;;89.47;44.30;;;;;;;-3.23;60.95;96676.66;1711580;83;20974;-48
2022/03/21 03:13:14;;;;;;;98.33;46.80;;;;;;;-3.26;61.06;96669.78;1711407;83;20979;-49
2022/03/21 03:15:42;;;;;;;97.12;46.80;;;;;;;-3.25;61.25;96668.11;1711510;83;21109;-49
2022/03/21 03:18:09;;;;;;;91.82;44.55;;;;;;;-3.24;61.04;96674.30;1711534;83;21154;-50
2022/03/21 03:20:37;;;;;;;100.33;47.35;;;;;;;-3.31;60.93;96668.02;1711716;83;21495;-49
2022/03/21 03:23:05;;;;;;;85.50;44.93;;;;;;;-3.38;61.32;96670.36;1711485;83;21027;-49
2022/03/21 03:25:33;;;;;;;66.62;32.75;;;;;;;-3.36;61.45;96660.10;1711582;83;21009;-49
2022/03/21 03:28:01;;;;;;;54.53;27.73;;;;;;;-3.29;61.40;96665.81;1711385;83;21109;-49
2022/03/21 03:30:28;;;;;;;50.03;25.62;;;;;;;-3.32;60.95;96663.75;1711532;83;21106;-49
2022/03/21 03:32:57;;;;;;;50.10;25.43;;;;;;;-3.46;61.02;96660.38;1711522;83;20972;-49
2022/03/21 03:35:26;;;;;;;46.23;25.80;;;;;;;-3.57;61.19;96658.82;1711751;83;21415;-50
2022/03/21 03:37:53;;;;;;;53.63;28.27;;;;;;;-3.69;61.43;96668.05;1711559;83;21018;-49
2022/03/21 03:40:21;;;;;;;63.15;33.10;;;;;;;-3.80;61.87;96670.21;1711526;83;21054;-50
2022/03/21 03:42:49;;;;;;;82.50;42.67;;;;;;;-3.86;62.25;96670.66;1711494;83;21384;-48
2022/03/21 03:45:16;;;;;;;83.05;43.55;;;;;;;-3.90;62.48;96673.72;1711504;83;20967;-51
2022/03/21 03:47:43;;;;;;;120.92;60.63;;;;;;;-3.86;62.68;96666.05;1711554;83;20974;-49
2022/03/21 03:50:12;;;;;;;77.22;41.23;;;;;;;-3.78;62.56;96667.20;1711563;83;21006;-50
2022/03/21 03:52:40;;;;;;;70.83;37.63;;;;;;;-3.69;62.36;96670.73;1711560;83;21113;-49
2022/03/21 03:55:09;;;;;;;72.27;39.33;;;;;;;-3.63;62.04;96672.17;1711490;83;21238;-50
2022/03/21 03:57:37;;;;;;;80.22;40.73;;;;;;;-3.62;61.70;96673.76;1711572;83;21015;-56
2022/03/21 04:00:07;;;;;;;79.72;41.23;;;;;;;-3.63;61.74;96672.17;1711591;83;20974;-50
2022/03/21 04:05:24;;;;;;;94.07;45.08;;;;;;;-3.63;61.76;96678.36;1711779;83;20979;-49
2022/03/21 04:07:52;;;;;;;66.85;33.95;;;;;;;-3.59;61.86;96670.44;1711567;83;21984;-51
2022/03/21 04:10:22;;;;;;;58.28;30.43;;;;;;;-3.67;61.48;96673.91;1711490;83;21086;-49
2022/03/21 04:12:50;;;;;;;64.47;33.80;;;;;;;-3.86;61.61;96676.03;1711569;83;21058;-50
2022/03/21 04:15:18;;;;;;;64.77;33.83;;;;;;;-3.91;62.27;96672.14;1711528;83;20987;-49
2022/03/21 04:17:45;;;;;;;73.80;37.25;;;;;;;-3.95;62.18;96677.86;1711530;83;20975;-51
2022/03/21 04:20:13;;;;;;;59.63;30.02;;;;;;;-4.06;62.29;96673.30;1711780;83;22157;-49
2022/03/21 04:22:42;;;;;;;58.60;31.50;;;;;;;-4.13;62.54;96678.33;1711356;83;21042;-50
2022/03/21 04:25:10;;;;;;;60.88;32.50;;;;;;;-4.10;62.78;96682.27;1711452;83;21085;-50
2022/03/21 04:27:38;;;;;;;109.83;62.33;;;;;;;-4.11;62.69;96679.34;1711412;83;20983;-50
2022/03/21 04:30:08;;;;;;;85.03;44.90;;;;;;;-4.15;62.74;96679.19;1711798;83;20987;-49
2022/03/21 04:32:37;;;;;;;84.92;44.75;;;;;;;-4.23;62.80;96678.56;1710487;83;21262;-50
2022/03/21 04:35:07;;;;;;;74.65;39.73;;;;;;;-4.26;62.99;96678.41;1711371;83;21421;-50
2022/03/21 04:37:35;;;;;;;81.05;42.38;;;;;;;-4.27;63.05;96674.14;1711540;83;21428;-50
2022/03/21 04:40:02;;;;;;;100.47;53.48;;;;;;;-4.27;63.08;96674.14;1711435;83;20987;-50
2022/03/21 04:42:31;;;;;;;145.87;56.35;;;;;;;-4.28;63.07;96672.55;1711589;83;21031;-49
2022/03/21 04:44:59;;;;;;;88.82;41.65;;;;;;;-4.28;63.35;96669.87;1711579;83;21599;-50
2022/03/21 04:47:26;;;;;;;101.05;48.75;;;;;;;-4.25;63.70;96671.94;1711502;83;20980;-50
2022/03/21 04:49:55;;;;;;;119.87;59.15;;;;;;;-4.13;63.90;96673.48;1711553;83;20982;-52
2022/03/21 04:52:22;;;;;;;96.65;48.25;;;;;;;-4.01;63.77;96680.45;1711420;83;21007;-49
2022/03/21 04:54:50;;;;;;;102.00;44.40;;;;;;;-3.86;63.49;96688.13;1711554;83;21034;-49
2022/03/21 04:57:24;;;;;;;90.05;44.90;;;;;;;-3.75;62.99;96690.77;1711492;83;21251;-51
2022/03/21 04:59:54;;;;;;;88.75;44.83;;;;;;;-3.68;62.93;96692.48;1696568;83;20976;-51
2022/03/21 05:02:23;;;;;;;85.80;42.78;;;;;;;-3.59;62.50;96685.23;1711496;83;21014;-50
2022/03/21 05:04:51;;;;;;;117.55;53.68;;;;;;;-3.52;62.22;96685.03;1711495;83;21070;-50
2022/03/21 05:07:19;;;;;;;120.37;52.88;;;;;;;-3.49;62.21;96686.55;1711445;83;20979;-49
2022/03/21 05:09:47;;;;;;;156.10;64.65;;;;;;;-3.38;62.27;96693.80;1711424;83;21175;-51
2022/03/21 05:12:15;;;;;;;186.12;76.15;;;;;;;-3.25;62.10;96698.28;1711432;83;21082;-50
2022/03/21 05:14:43;;;;;;;175.85;88.07;;;;;;;-3.13;61.78;96695.22;1704904;83;21057;-49
2022/03/21 05:17:11;;;;;;;120.22;57.38;;;;;;;-3.02;61.57;96696.50;1711507;83;21019;-50
2022/03/21 05:19:41;;;;;;;94.62;56.08;;;;;;;-3.00;61.11;96691.62;1711521;83;21529;-49
2022/03/21 05:22:08;;;;;;;109.83;56.98;;;;;;;-3.03;60.95;96692.79;1711487;83;21139;-49
2022/03/21 05:35:55;;;;;;;77.10;37.17;;;;;;;-2.90;60.61;96703.42;1711514;83;21181;-50
2022/03/21 05:38:25;;;;;;;100.02;42.73;;;;;;;-2.98;60.87;96698.83;1711671;83;21011;-51
2022/03/21 05:40:59;;;;;;;84.87;43.75;;;;;;;-3.09;60.98;96698.09;1711420;83;21014;-49
2022/03/21 05:43:28;;;;;;;62.13;33.05;;;;;;;-3.17;61.29;96702.88;1711723;83;21089;-50
2022/03/21 05:45:55;;;;;;;71.82;35.70;;;;;;;-3.16;61.06;96705.81;1711733;83;21027;-49
2022/03/21 05:51:08;;;;;;;135.88;57.27;;;;;;;-3.22;61.22;96705.15;1711660;83;21462;-50
2022/03/21 05:53:36;;;;;;;117.13;56.18;;;;;;;-3.12;61.25;96709.45;1711527;83;21007;-49
2022/03/21 05:56:04;;;;;;;113.85;57.40;;;;;;;-3.02;60.97;96709.17;1707850;82;21145;-51
2022/03/21 05:58:32;;;;;;;117.72;58.33;;;;;;;-2.97;60.90;96716.56;1724446;82;21562;-50
2022/03/21 06:00:59;;;;;;;112.90;55.12;;;;;;;-2.92;60.86;96715.06;1718150;81;21488;-50
2022/03/21 06:03:28;;;;;;;129.50;61.23;;;;;;;-2.84;60.87;96710.23;1719472;82;20991;-49
2022/03/21 06:05:55;;;;;;;124.42;63.38;;;;;;;-2.75;60.84;96712.40;1709023;81;20978;-49
2022/03/21 06:08:23;;;;;;;111.50;53.33;;;;;;;-2.64;60.62;96712.89;1709312;82;20958;-50
2022/03/21 06:11:03;;;;;;;127.15;60.80;;;;;;;-2.58;60.42;96713.77;1706069;82;21462;-49
2022/03/21 06:13:22;;;;;;;126.55;63.17;;;;;;;-2.61;60.41;96715.75;1701175;82;21222;-51
2022/03/21 06:15:50;;;;;;;126.02;59.05;;;;;;;-2.67;60.64;96710.83;1708094;82;21103;-53
2022/03/21 06:18:18;;;;;;;103.83;54.10;;;;;;;-2.67;60.69;96715.64;1730327;81;21026;-50
2022/03/21 06:20:47;;;;;;;91.15;46.58;;;;;;;-2.61;60.69;96706.86;1701020;82;20982;-53
2022/03/21 06:23:15;;;;;;;114.65;54.05;;;;;;;-2.54;60.69;96713.94;1692322;82;21033;-51
2022/03/21 06:25:43;;;;;;;96.72;46.95;;;;;;;-2.53;60.77;96710.91;1719947;81;21145;-51
2022/03/21 06:28:10;;;;;;;95.80;49.20;;;;;;;-2.50;60.62;96701.41;1710497;82;21608;-53
2022/03/21 06:30:37;;;;;;;90.45;46.30;;;;;;;-2.43;60.62;96705.22;1706122;82;21073;-56
2022/03/21 06:33:05;;;;;;;90.05;45.38;;;;;;;-2.25;60.52;96709.50;1710914;82;21196;-53
2022/03/21 06:35:32;;;;;;;89.87;43.75;;;;;;;-2.09;60.35;96701.17;1705184;82;21106;-52
2022/03/21 06:37:59;;;;;;;85.05;43.33;;;;;;;-1.87;60.21;96700.97;1694798;82;21184;-50
2022/03/21 06:40:27;;;;;;;67.97;37.10;;;;;;;-1.61;59.71;96701.68;1703638;82;20954;-53
2022/03/21 06:42:54;;;;;;;90.42;49.85;;;;;;;-1.38;59.18;96704.38;1706414;81;21099;-50
2022/03/21 06:45:21;;;;;;;83.92;43.90;;;;;;;-1.23;58.68;96697.89;1707484;81;21533;-51
2022/03/21 06:47:49;;;;;;;70.50;36.85;;;;;;;-1.02;58.31;96691.18;1703469;82;21540;-52
2022/03/21 06:50:16;;;;;;;70.15;35.68;;;;;;;-0.92;57.68;96688.89;1718135;81;21135;-52
2022/03/21 06:52:44;;;;;;;65.35;34.85;;;;;;;-0.82;57.09;96686.37;1710024;82;21977;-51
2022/03/21 06:55:13;;;;;;;66.17;34.95;;;;;;;-0.68;56.55;96688.27;1699676;82;21462;-53
2022/03/21 06:57:40;;;;;;;161.70;84.13;;;;;;;-0.53;56.21;96686.34;1707007;82;21148;-51
2022/03/21 07:00:09;;;;;;;78.78;40.67;;;;;;;-0.43;56.15;96679.20;1708291;81;21072;-50
2022/03/21 07:02:37;;;;;;;77.05;37.65;;;;;;;-0.28;55.90;96690.20;1711935;82;21159;-51
2022/03/21 07:05:07;;;;;;;75.90;36.95;;;;;;;-0.11;55.48;96683.30;1708137;81;21136;-54
2022/03/21 07:07:37;;;;;;;69.00;33.35;;;;;;;-0.04;55.02;96678.70;1697229;81;21068;-53
2022/03/21 07:10:05;;;;;;;64.85;36.70;;;;;;;-0.03;54.95;96678.94;1710856;81;21072;-55
2022/03/21 07:12:34;;;;;;;82.45;39.20;;;;;;;0.02;54.79;96679.53;1699356;82;21609;-52
2022/03/21 07:15:06;;;;;;;92.47;40.48;;;;;;;0.18;54.80;96678.55;1711139;82;21875;-52
2022/03/21 07:17:34;;;;;;;80.03;39.10;;;;;;;0.36;54.74;96677.80;1705531;82;21061;-53
2022/03/21 07:20:03;;;;;;;85.72;42.00;;;;;;;0.48;54.35;96675.94;1719801;82;21790;-53
2022/03/21 07:22:30;;;;;;;91.87;43.50;;;;;;;0.65;53.88;96674.93;1709001;81;21536;-55
2022/03/21 07:24:58;;;;;;;84.90;45.10;;;;;;;0.71;53.78;96666.80;1696411;82;21630;-54
2022/03/21 07:27:25;;;;;;;94.07;43.35;;;;;;;0.79;54.11;96672.11;1705792;82;21102;-53
2022/03/21 07:29:57;;;;;;;72.37;39.00;;;;;;;0.92;53.57;96671.58;1682272;82;21909;-54
2022/03/21 07:32:24;;;;;;;68.67;38.65;;;;;;;1.07;53.32;96673.03;1696906;82;22580;-53
2022/03/21 07:34:51;;;;;;;79.37;41.18;;;;;;;1.20;52.79;96677.87;1704937;82;21038;-53
2022/03/21 07:37:20;;;;;;;56.95;33.53;;;;;;;1.28;52.50;96668.84;1715113;82;21568;-51
2022/03/21 07:39:49;;;;;;;39.13;20.45;;;;;;;1.40;52.17;96679.10;1706259;82;21849;-54
2022/03/21 07:42:19;;;;;;;40.55;22.42;;;;;;;1.52;51.15;96672.28;1689726;82;21146;-53
2022/03/21 07:47:34;;;;;;;44.55;24.20;;;;;;;1.76;50.28;96663.52;1698124;82;21064;-54
2022/03/21 07:50:06;;;;;;;54.50;27.05;;;;;;;1.92;50.02;96669.02;1713517;81;21118;-53
2022/03/21 07:52:34;;;;;;;;;;;;;;;2.07;50.33;96651.97;1703220;82;22376;-51
2022/03/21 07:55:03;;;;;;;40.30;24.27;;;;;;;2.26;49.30;96659.69;1690081;82;20203;-54
2022/03/21 07:57:31;;;;;;;47.67;24.60;;;;;;;2.31;49.13;96656.72;1710270;83;21031;-52
2022/03/21 07:59:58;;;;;;;45.88;25.35;;;;;;;2.45;48.90;96652.22;1707519;82;21601;-56
2022/03/21 08:02:27;;;;;;;56.45;29.52;;;;;;;2.58;48.46;96649.66;1705786;82;21449;-54
2022/03/21 08:04:54;;;;;;;48.00;28.15;;;;;;;2.70;48.47;96649.58;1691182;82;21235;-53
2022/03/21 08:07:24;;;;;;;51.68;29.85;;;;;;;2.84;48.15;96647.22;1687176;81;21074;-54
2022/03/21 08:09:51;;;;;;;59.18;32.10;;;;;;;2.92;47.97;96644.88;1694013;82;21050;-53
2022/03/21 08:12:19;;;;;;;54.55;31.62;;;;;;;3.14;48.00;96647.76;1700254;82;21026;-52
2022/03/21 08:14:53;;;;;;;54.45;30.75;;;;;;;3.28;47.41;96645.92;1700209;82;21070;-50
2022/03/21 08:17:22;;;;;;;57.95;30.35;;;;;;;3.33;47.22;96642.92;1702941;82;21867;-54
2022/03/21 08:19:53;;;;;;;44.58;27.55;;;;;;;3.45;46.99;96637.38;1703291;81;20991;-54
2022/03/21 08:22:25;;;;;;;44.88;25.77;;;;;;;3.59;46.69;96629.74;1707860;81;21414;-53
2022/03/21 08:24:54;;;;;;;43.17;24.43;;;;;;;3.74;45.98;96612.57;1695592;82;21048;-54
2022/03/21 08:27:25;;;;;;;37.85;21.93;;;;;;;3.87;45.57;96607.17;1706934;81;20942;-55
2022/03/21 08:29:53;;;;;;;46.90;25.02;;;;;;;3.93;45.35;96603.03;1651891;84;22088;-54
2022/03/21 08:32:20;;;;;;;28.90;17.05;;;;;;;3.99;45.09;96594.78;1685022;83;21006;-53
2022/03/21 08:34:50;;;;;;;28.02;17.82;;;;;;;4.21;44.89;96598.11;1648279;85;21079;-53
2022/03/21 08:37:18;;;;;;;48.60;15.32;;;;;;;4.40;44.29;96603.52;1659879;83;21590;-53
2022/03/21 08:39:48;;;;;;;28.30;16.20;;;;;;;4.54;43.69;96596.96;1641551;85;21094;-53
2022/03/21 08:42:15;;;;;;;25.62;14.10;;;;;;;4.64;43.11;96603.16;1645909;84;21401;-53
2022/03/21 08:44:42;;;;;;;28.23;14.68;;;;;;;4.80;42.97;96596.23;1653643;84;21093;-55
2022/03/21 08:47:12;;;;;;;37.80;20.02;;;;;;;4.96;42.54;96588.11;1655646;84;21109;-55
2022/03/21 08:49:39;;;;;;;32.10;19.37;;;;;;;5.14;42.22;96580.98;1668573;84;21058;-55
2022/03/21 08:52:07;;;;;;;26.80;18.27;;;;;;;5.29;42.12;96580.03;1656575;84;22198;-54
2022/03/21 08:54:41;;;;;;;32.67;19.17;;;;;;;5.43;41.68;96576.14;1657011;84;21571;-54
2022/03/21 08:57:10;;;;;;;24.72;16.65;;;;;;;5.51;41.47;96578.59;1672413;83;21304;-54
2022/03/21 08:59:38;;;;;;;28.30;17.07;;;;;;;5.62;41.46;96568.59;1627323;84;21178;-53
2022/03/21 09:02:13;;;;;;;28.02;18.45;;;;;;;5.69;41.36;96568.69;1641266;84;21081;-55
2022/03/21 09:04:46;;;;;;;33.83;18.57;;;;;;;5.81;41.30;96567.09;1637674;85;21556;-53
2022/03/21 09:07:15;;;;;;;36.05;20.60;;;;;;;5.94;41.90;96559.47;1635605;85;21110;-52
2022/03/21 09:09:43;;;;;;;37.17;20.43;;;;;;;6.16;41.39;96562.63;1644466;85;21075;-53
2022/03/21 09:12:16;;;;;;;42.15;23.98;;;;;;;6.33;40.92;96566.89;1645786;84;21045;-55
2022/03/21 09:14:44;;;;;;;34.50;21.02;;;;;;;6.48;40.89;96561.00;1620730;86;21100;-60
2022/03/21 09:17:13;;;;;;;32.03;19.98;;;;;;;6.65;40.57;96558.98;1651459;85;21671;-54
2022/03/21 09:19:42;;;;;;;48.55;22.60;;;;;;;6.83;40.21;96549.77;1616105;85;21110;-52
2022/03/21 09:22:10;;;;;;;77.20;24.47;;;;;;;7.02;40.15;96549.53;1614643;85;21121;-54
2022/03/21 09:24:39;;;;;;;36.08;20.37;;;;;;;7.24;39.31;96554.77;1640187;85;21088;-52
2022/03/21 09:27:06;;;;;;;36.33;19.35;;;;;;;7.47;38.66;96546.27;1653763;84;21481;-54
2022/03/21 09:29:35;;;;;;;37.88;19.23;;;;;;;7.69;38.34;96537.79;1639606;85;21108;-55
2022/03/21 09:32:05;;;;;;;26.93;16.87;;;;;;;7.95;37.18;96526.55;1656399;84;21563;-55
2022/03/21 09:34:39;;;;;;;25.48;15.72;;;;;;;8.19;36.44;96534.08;1658641;85;21091;-55
2022/03/21 09:37:04;;;;;;;30.02;16.97;;;;;;;8.47;36.38;96530.00;1666524;85;20970;-55
2022/03/21 09:39:33;;;;;;;30.85;17.48;;;;;;;8.78;35.58;96533.36;1652226;85;21174;-53
2022/03/21 09:42:03;;;;;;;23.70;16.07;;;;;;;9.02;34.91;96527.07;1657789;84;21579;-53
2022/03/21 09:44:30;;;;;;;24.10;16.75;;;;;;;9.31;35.89;96524.49;1654587;84;21155;-54
2022/03/21 09:46:58;;;;;;;40.73;17.12;;;;;;;9.65;33.94;96527.72;1660282;84;21074;-56
2022/03/21 09:49:30;;;;;;;26.42;16.65;;;;;;;10.01;33.44;96522.89;1654636;84;21054;-55
2022/03/21 09:51:56;;;;;;;22.58;15.40;;;;;;;10.41;32.92;96530.55;1664803;82;22578;-54
2022/03/21 09:54:23;;;;;;;20.57;12.05;;;;;;;10.86;31.88;96514.50;1626291;85;21094;-54
2022/03/21 09:56:50;;;;;;;31.48;14.38;;;;;;;11.23;30.00;96506.30;1654078;84;22218;-53
2022/03/21 09:59:18;;;;;;;20.30;12.50;;;;;;;11.49;30.66;96494.59;1633090;84;21068;-54
2022/03/21 10:01:49;;;;;;;25.20;15.98;;;;;;;11.89;29.75;96495.14;1650345;84;21827;-56
2022/03/21 10:04:18;;;;;;;28.25;15.85;;;;;;;12.32;30.04;96490.64;1657570;84;21023;-54
2022/03/21 10:06:49;;;;;;;46.20;20.08;;;;;;;12.83;29.65;96480.56;1655343;85;21149;-54
2022/03/21 10:09:21;;;;;;;27.42;17.15;;;;;;;13.37;28.70;96489.72;1652525;85;21170;-54
2022/03/21 10:11:52;;;;;;;21.05;13.15;;;;;;;13.87;27.71;96489.55;1657984;83;21110;-54
2022/03/21 10:14:28;;;;;;;23.98;14.25;;;;;;;14.35;26.73;96489.75;1654216;84;21057;-55
2022/03/21 10:17:12;;;;;;;22.42;14.35;;;;;;;14.72;25.48;96490.86;1641537;84;21133;-55
2022/03/21 10:19:46;;;;;;;16.45;12.20;;;;;;;15.03;26.07;96475.43;1648296;84;21121;-54
2022/03/21 10:22:21;;;;;;;17.52;12.10;;;;;;;15.37;24.83;96473.63;1637787;85;22407;-57
2022/03/21 10:24:51;;;;;;;17.52;10.85;;;;;;;15.53;24.37;96475.75;1645507;84;21078;-59
2022/03/21 10:27:37;;;;;;;28.83;18.07;;;;;;;15.71;23.59;96470.49;1628487;84;21105;-53
2022/03/21 10:30:11;;;;;;;29.42;17.60;;;;;;;15.85;24.24;96470.11;1634386;84;21014;-57
2022/03/21 10:32:56;;;;;;;50.03;24.63;;;;;;;16.25;23.46;96476.87;1657956;84;21742;-52
2022/03/21 10:35:31;;;;;;;31.27;17.75;;;;;;;16.63;24.23;96470.77;1650058;85;21087;-54
2022/03/21 10:38:03;;;;;;;23.22;13.68;;;;;;;17.06;23.24;96473.76;1653803;85;21943;-54
2022/03/21 10:40:44;;;;;;;13.70;10.00;;;;;;;17.38;23.54;96472.87;1653178;84;21146;-54
2022/03/21 10:43:14;;;;;;;45.65;14.47;;;;;;;17.79;21.45;96469.08;1650532;83;21010;-56
2022/03/21 10:45:50;;;;;;;26.00;11.37;;;;;;;18.06;21.87;96470.66;1661527;84;21699;-58
2022/03/21 10:48:22;;;;;;;22.27;10.78;;;;;;;18.32;21.26;96462.48;1664424;83;22274;-54
2022/03/21 10:50:53;;;;;;;25.60;10.00;;;;;;;18.42;21.32;96466.89;1645488;85;21090;-53
2022/03/21 10:53:33;;;;;;;39.83;12.37;;;;;;;18.59;20.85;96462.64;1638509;85;21191;-55
2022/03/21 10:56:05;;;;;;;12.98;9.95;;;;;;;18.67;20.59;96465.30;1650147;84;21845;-59
2022/03/21 10:58:44;;;;;;;13.65;10.35;;;;;;;18.84;20.44;96456.09;1696900;81;21015;-53
2022/03/21 11:01:19;;;;;;;17.35;10.88;;;;;;;19.06;20.75;96451.20;1709520;82;21124;-54
2022/03/21 11:03:49;;;;;;;30.12;14.20;;;;;;;19.13;19.82;96446.10;1685793;82;21413;-56
2022/03/21 11:06:18;;;;;;;18.40;11.65;;;;;;;19.26;20.18;96457.16;1713758;81;21014;-53
2022/03/21 11:08:47;;;;;;;20.62;12.07;;;;;;;19.46;19.89;96451.31;1706707;82;21666;-53
2022/03/21 11:11:15;;;;;;;26.65;14.50;;;;;;;19.69;19.94;96439.53;1701054;82;21026;-53
2022/03/21 11:13:43;;;;;;;17.85;12.10;;;;;;;19.93;19.87;96439.05;1693202;81;21143;-55
2022/03/21 11:16:12;;;;;;;13.88;9.78;;;;;;;20.19;19.03;96428.48;1690343;82;21172;-56
2022/03/21 11:18:40;;;;;;;33.95;10.32;;;;;;;20.27;18.29;96433.13;1677620;82;21612;-56
2022/03/21 11:21:11;;;;;;;19.23;10.18;;;;;;;20.27;18.61;96433.92;1705294;81;21037;-54
2022/03/21 11:23:37;;;;;;;14.50;9.18;;;;;;;20.35;19.28;96428.14;1693627;82;20992;-53
2022/03/21 11:26:15;;;;;;;13.83;8.68;;;;;;;20.55;19.30;96434.62;1700617;82;21107;-52
2022/03/21 11:29:11;;;;;;;20.88;11.45;;;;;;;20.83;18.49;96424.86;1713576;82;21033;-56
2022/03/21 11:31:51;;;;;;;13.83;7.87;;;;;;;21.05;19.11;96411.40;1720391;81;21112;-54
2022/03/21 11:34:39;;;;;;;18.32;9.83;;;;;;;21.26;17.29;96417.36;1714594;82;21589;-53
2022/03/21 11:37:07;;;;;;;14.53;8.33;;;;;;;21.20;17.25;96413.65;1718099;82;21283;-55
2022/03/21 11:39:34;;;;;;;24.65;12.10;;;;;;;21.28;18.27;96405.05;1655751;82;21969;-53
2022/03/21 11:42:11;;;;;;;25.37;11.48;;;;;;;21.49;17.54;96397.72;1702603;82;21143;-54
2022/03/21 11:44:37;;;;;;;12.07;8.43;;;;;;;21.68;18.14;96389.99;1717450;82;21434;-55
2022/03/21 11:47:24;;;;;;;13.22;8.70;;;;;;;22.06;17.57;96387.91;1711110;81;21121;-52
2022/03/21 11:49:55;;;;;;;16.77;8.93;;;;;;;22.36;18.02;96395.86;1703868;82;21030;-57